sensor_id;sensor_type;location;lat;lon;timestamp;pressure;altitude;pressure_sealevel;temperature;humidity
26043;BME280;13818;52.156;5.382;2023-04-22T00:00:33;100615.72;;;9.45;100.00
26043;BME280;13818;52.156;5.382;2023-04-22T00:03:01;100608.75;;;9.42;100.00
26043;BME280;13818;52.156;5.382;2023-04-22T00:05:29;100605.16;;;9.43;100.00
26043;BME280;13818;52.156;5.382;2023-04-22T00:07:56;100599.63;;;9.48;100.00
26043;BME280;13818;52.156;5.382;2023-04-22T00:10:22;100593.13;;;9.35;100.00
26043;BME280;13818;52.156;5.382;2023-04-22T00:12:49;100597.88;;;9.28;100.00
26043;BME280;13818;52.156;5.382;2023-04-22T00:15:15;100590.28;;;9.39;100.00
26043;BME280;13818;52.156;5.382;2023-04-22T00:17:46;100584.16;;;9.37;100.00
26043;BME280;13818;52.156;5.382;2023-04-22T00:20:12;100583.34;;;9.35;100.00
26043;BME280;13818;52.156;5.382;2023-04-22T00:22:40;100583.91;;;9.23;100.00
26043;BME280;13818;52.156;5.382;2023-04-22T00:25:08;100581.31;;;9.21;100.00
26043;BME280;13818;52.156;5.382;2023-04-22T00:27:34;100578.13;;;9.13;100.00
26043;BME280;13818;52.156;5.382;2023-04-22T00:30:00;100580.13;;;9.08;100.00
26043;BME280;13818;52.156;5.382;2023-04-22T00:32:27;100586.50;;;9.04;100.00
26043;BME280;13818;52.156;5.382;2023-04-22T00:34:53;100585.66;;;9.03;100.00
26043;BME280;13818;52.156;5.382;2023-04-22T00:37:22;100590.31;;;8.98;100.00
26043;BME280;13818;52.156;5.382;2023-04-22T00:39:50;100589.41;;;8.98;100.00
26043;BME280;13818;52.156;5.382;2023-04-22T00:42:18;100583.41;;;8.94;100.00
26043;BME280;13818;52.156;5.382;2023-04-22T00:44:46;100592.63;;;8.85;100.00
26043;BME280;13818;52.156;5.382;2023-04-22T00:47:12;100587.38;;;8.84;100.00
26043;BME280;13818;52.156;5.382;2023-04-22T00:49:39;100583.25;;;8.76;100.00
26043;BME280;13818;52.156;5.382;2023-04-22T00:52:05;100594.00;;;8.73;100.00
26043;BME280;13818;52.156;5.382;2023-04-22T00:54:33;100588.91;;;8.69;100.00
26043;BME280;13818;52.156;5.382;2023-04-22T00:57:02;100589.75;;;8.69;100.00
26043;BME280;13818;52.156;5.382;2023-04-22T00:59:30;100593.59;;;8.62;100.00
26043;BME280;13818;52.156;5.382;2023-04-22T01:01:57;100598.06;;;8.61;100.00
26043;BME280;13818;52.156;5.382;2023-04-22T01:04:24;100604.28;;;8.60;100.00
26043;BME280;13818;52.156;5.382;2023-04-22T01:06:51;100598.00;;;8.63;100.00
26043;BME280;13818;52.156;5.382;2023-04-22T01:09:18;100594.59;;;8.59;100.00
26043;BME280;13818;52.156;5.382;2023-04-22T01:11:45;100592.84;;;8.58;100.00
26043;BME280;13818;52.156;5.382;2023-04-22T01:14:13;100593.00;;;8.55;100.00
26043;BME280;13818;52.156;5.382;2023-04-22T01:16:41;100597.47;;;8.55;100.00
26043;BME280;13818;52.156;5.382;2023-04-22T01:19:09;100595.06;;;8.49;100.00
26043;BME280;13818;52.156;5.382;2023-04-22T01:21:37;100588.78;;;8.50;100.00
26043;BME280;13818;52.156;5.382;2023-04-22T01:24:07;100588.94;;;8.46;100.00
26043;BME280;13818;52.156;5.382;2023-04-22T01:26:33;100597.03;;;8.42;100.00
26043;BME280;13818;52.156;5.382;2023-04-22T01:29:00;100600.69;;;8.39;100.00
26043;BME280;13818;52.156;5.382;2023-04-22T01:31:27;100599.16;;;8.34;100.00
26043;BME280;13818;52.156;5.382;2023-04-22T01:33:54;100594.09;;;8.27;100.00
26043;BME280;13818;52.156;5.382;2023-04-22T01:36:20;100598.66;;;8.24;100.00
26043;BME280;13818;52.156;5.382;2023-04-22T01:38:47;100598.53;;;8.27;100.00
26043;BME280;13818;52.156;5.382;2023-04-22T01:41:15;100588.63;;;8.32;100.00
26043;BME280;13818;52.156;5.382;2023-04-22T01:43:42;100595.03;;;8.26;100.00
26043;BME280;13818;52.156;5.382;2023-04-22T01:46:09;100592.63;;;8.20;100.00
26043;BME280;13818;52.156;5.382;2023-04-22T01:48:36;100591.56;;;8.24;100.00
26043;BME280;13818;52.156;5.382;2023-04-22T01:51:03;100590.03;;;8.19;100.00
26043;BME280;13818;52.156;5.382;2023-04-22T01:53:30;100591.03;;;8.16;100.00
26043;BME280;13818;52.156;5.382;2023-04-22T01:55:56;100592.06;;;8.12;100.00
26043;BME280;13818;52.156;5.382;2023-04-22T01:58:27;100588.66;;;8.08;100.00
26043;BME280;13818;52.156;5.382;2023-04-22T02:00:54;100583.28;;;8.10;100.00
26043;BME280;13818;52.156;5.382;2023-04-22T02:03:20;100588.59;;;8.10;100.00
26043;BME280;13818;52.156;5.382;2023-04-22T02:05:47;100593.75;;;8.14;100.00
26043;BME280;13818;52.156;5.382;2023-04-22T02:08:14;100590.28;;;8.12;100.00
26043;BME280;13818;52.156;5.382;2023-04-22T02:10:41;100583.22;;;8.11;100.00
26043;BME280;13818;52.156;5.382;2023-04-22T02:13:07;100579.72;;;8.11;100.00
26043;BME280;13818;52.156;5.382;2023-04-22T02:15:35;100588.53;;;8.11;100.00
26043;BME280;13818;52.156;5.382;2023-04-22T02:18:01;100585.22;;;8.06;100.00
26043;BME280;13818;52.156;5.382;2023-04-22T02:20:28;100589.75;;;8.03;100.00
26043;BME280;13818;52.156;5.382;2023-04-22T02:22:54;100579.03;;;8.06;100.00
26043;BME280;13818;52.156;5.382;2023-04-22T02:25:21;100587.31;;;7.98;100.00
26043;BME280;13818;52.156;5.382;2023-04-22T02:27:48;100583.72;;;7.99;100.00
26043;BME280;13818;52.156;5.382;2023-04-22T02:30:15;100573.06;;;8.01;100.00
26043;BME280;13818;52.156;5.382;2023-04-22T02:32:43;100581.81;;;8.03;100.00
26043;BME280;13818;52.156;5.382;2023-04-22T02:35:10;100578.38;;;8.01;100.00
26043;BME280;13818;52.156;5.382;2023-04-22T02:37:37;100574.72;;;8.03;100.00
26043;BME280;13818;52.156;5.382;2023-04-22T02:40:04;100566.75;;;8.03;100.00
26043;BME280;13818;52.156;5.382;2023-04-22T02:42:31;100564.88;;;8.05;100.00
26043;BME280;13818;52.156;5.382;2023-04-22T02:44:58;100568.53;;;8.03;100.00
26043;BME280;13818;52.156;5.382;2023-04-22T02:47:26;100563.88;;;8.09;100.00
26043;BME280;13818;52.156;5.382;2023-04-22T02:49:54;100566.56;;;8.08;100.00
26043;BME280;13818;52.156;5.382;2023-04-22T02:52:20;100569.03;;;8.12;100.00
26043;BME280;13818;52.156;5.382;2023-04-22T02:54:46;100575.94;;;8.17;100.00
26043;BME280;13818;52.156;5.382;2023-04-22T02:57:13;100561.81;;;8.16;100.00
26043;BME280;13818;52.156;5.382;2023-04-22T02:59:40;100561.88;;;8.14;100.00
26043;BME280;13818;52.156;5.382;2023-04-22T03:02:06;100561.06;;;8.12;100.00
26043;BME280;13818;52.156;5.382;2023-04-22T03:04:34;100562.00;;;8.11;100.00
26043;BME280;13818;52.156;5.382;2023-04-22T03:07:03;100559.34;;;8.11;100.00
26043;BME280;13818;52.156;5.382;2023-04-22T03:09:30;100545.88;;;8.16;100.00
26043;BME280;13818;52.156;5.382;2023-04-22T03:11:56;100551.97;;;8.18;100.00
26043;BME280;13818;52.156;5.382;2023-04-22T03:14:23;100542.50;;;8.12;100.00
26043;BME280;13818;52.156;5.382;2023-04-22T03:16:49;100546.13;;;8.10;100.00
26043;BME280;13818;52.156;5.382;2023-04-22T03:19:16;100546.25;;;8.07;100.00
26043;BME280;13818;52.156;5.382;2023-04-22T03:21:42;100546.88;;;7.91;100.00
26043;BME280;13818;52.156;5.382;2023-04-22T03:24:10;100544.59;;;7.82;100.00
26043;BME280;13818;52.156;5.382;2023-04-22T03:26:36;100552.09;;;7.93;100.00
26043;BME280;13818;52.156;5.382;2023-04-22T03:29:03;100551.81;;;8.01;100.00
26043;BME280;13818;52.156;5.382;2023-04-22T03:31:29;100543.72;;;8.04;100.00
26043;BME280;13818;52.156;5.382;2023-04-22T03:33:56;100547.28;;;8.03;100.00
26043;BME280;13818;52.156;5.382;2023-04-22T03:36:22;100538.28;;;8.07;100.00
26043;BME280;13818;52.156;5.382;2023-04-22T03:38:49;100531.25;;;8.06;100.00
26043;BME280;13818;52.156;5.382;2023-04-22T03:41:17;100542.00;;;8.03;100.00
26043;BME280;13818;52.156;5.382;2023-04-22T03:43:43;100530.44;;;8.04;100.00
26043;BME280;13818;52.156;5.382;2023-04-22T03:46:10;100527.94;;;8.01;100.00
26043;BME280;13818;52.156;5.382;2023-04-22T03:48:36;100527.94;;;8.01;100.00
26043;BME280;13818;52.156;5.382;2023-04-22T03:51:03;100519.09;;;8.00;100.00
26043;BME280;13818;52.156;5.382;2023-04-22T03:53:29;100523.47;;;8.01;100.00
26043;BME280;13818;52.156;5.382;2023-04-22T03:55:56;100512.00;;;8.01;100.00
26043;BME280;13818;52.156;5.382;2023-04-22T03:58:24;100522.63;;;8.01;100.00
26043;BME280;13818;52.156;5.382;2023-04-22T04:00:50;100508.38;;;8.03;100.00
26043;BME280;13818;52.156;5.382;2023-04-22T04:03:16;100508.53;;;7.98;100.00
26043;BME280;13818;52.156;5.382;2023-04-22T04:05:43;100514.78;;;7.97;100.00
26043;BME280;13818;52.156;5.382;2023-04-22T04:08:09;100516.69;;;7.94;100.00
26043;BME280;13818;52.156;5.382;2023-04-22T04:10:36;100506.81;;;7.97;100.00
26043;BME280;13818;52.156;5.382;2023-04-22T04:13:03;100508.78;;;7.92;100.00
26043;BME280;13818;52.156;5.382;2023-04-22T04:15:31;100497.19;;;7.95;100.00
26043;BME280;13818;52.156;5.382;2023-04-22T04:17:59;100491.69;;;8.00;100.00
26043;BME280;13818;52.156;5.382;2023-04-22T04:20:27;100496.50;;;7.90;100.00
26043;BME280;13818;52.156;5.382;2023-04-22T04:22:53;100491.03;;;7.94;100.00
26043;BME280;13818;52.156;5.382;2023-04-22T04:25:20;100491.78;;;7.98;100.00
26043;BME280;13818;52.156;5.382;2023-04-22T04:27:47;100489.97;;;7.98;100.00
26043;BME280;13818;52.156;5.382;2023-04-22T04:30:14;100488.16;;;7.99;100.00
26043;BME280;13818;52.156;5.382;2023-04-22T04:32:42;100489.81;;;8.02;100.00
26043;BME280;13818;52.156;5.382;2023-04-22T04:35:11;100501.41;;;8.01;100.00
26043;BME280;13818;52.156;5.382;2023-04-22T04:37:38;100496.25;;;7.96;100.00
26043;BME280;13818;52.156;5.382;2023-04-22T04:40:06;100488.38;;;7.94;100.00
26043;BME280;13818;52.156;5.382;2023-04-22T04:42:34;100492.72;;;7.95;100.00
26043;BME280;13818;52.156;5.382;2023-04-22T04:45:01;100495.34;;;7.97;100.00
26043;BME280;13818;52.156;5.382;2023-04-22T04:47:28;100508.53;;;7.98;100.00
26043;BME280;13818;52.156;5.382;2023-04-22T04:49:59;100498.03;;;7.95;100.00
26043;BME280;13818;52.156;5.382;2023-04-22T04:52:26;100485.56;;;7.75;100.00
26043;BME280;13818;52.156;5.382;2023-04-22T04:54:53;100484.03;;;7.70;100.00
26043;BME280;13818;52.156;5.382;2023-04-22T04:57:20;100474.94;;;7.77;100.00
26043;BME280;13818;52.156;5.382;2023-04-22T04:59:46;100480.09;;;7.80;100.00
26043;BME280;13818;52.156;5.382;2023-04-22T05:02:13;100473.63;;;7.87;100.00
26043;BME280;13818;52.156;5.382;2023-04-22T05:04:40;100481.09;;;8.00;100.00
26043;BME280;13818;52.156;5.382;2023-04-22T05:07:08;100486.88;;;8.09;100.00
26043;BME280;13818;52.156;5.382;2023-04-22T05:09:34;100475.06;;;8.17;100.00
26043;BME280;13818;52.156;5.382;2023-04-22T05:12:01;100476.94;;;8.14;100.00
26043;BME280;13818;52.156;5.382;2023-04-22T05:14:28;100475.72;;;8.22;100.00
26043;BME280;13818;52.156;5.382;2023-04-22T05:16:54;100488.00;;;8.24;100.00
26043;BME280;13818;52.156;5.382;2023-04-22T05:19:21;100486.00;;;8.29;100.00
26043;BME280;13818;52.156;5.382;2023-04-22T05:21:47;100491.31;;;8.29;100.00
26043;BME280;13818;52.156;5.382;2023-04-22T05:24:15;100491.06;;;8.36;100.00
26043;BME280;13818;52.156;5.382;2023-04-22T05:26:42;100497.25;;;8.36;100.00
26043;BME280;13818;52.156;5.382;2023-04-22T05:29:08;100498.75;;;8.43;100.00
26043;BME280;13818;52.156;5.382;2023-04-22T05:31:34;100498.94;;;8.39;100.00
26043;BME280;13818;52.156;5.382;2023-04-22T05:34:01;100496.09;;;8.43;100.00
26043;BME280;13818;52.156;5.382;2023-04-22T05:36:27;100495.91;;;8.48;100.00
26043;BME280;13818;52.156;5.382;2023-04-22T05:38:54;100495.97;;;8.46;100.00
26043;BME280;13818;52.156;5.382;2023-04-22T05:41:22;100497.47;;;8.52;100.00
26043;BME280;13818;52.156;5.382;2023-04-22T05:43:49;100505.53;;;8.51;100.00
26043;BME280;13818;52.156;5.382;2023-04-22T05:46:15;100497.47;;;8.52;100.00
26043;BME280;13818;52.156;5.382;2023-04-22T05:48:42;100509.56;;;8.59;100.00
26043;BME280;13818;52.156;5.382;2023-04-22T05:51:08;100505.19;;;8.58;100.00
26043;BME280;13818;52.156;5.382;2023-04-22T05:53:34;100497.22;;;8.58;100.00
26043;BME280;13818;52.156;5.382;2023-04-22T05:56:01;100503.25;;;8.62;100.00
26043;BME280;13818;52.156;5.382;2023-04-22T05:58:29;100503.06;;;8.67;100.00
26043;BME280;13818;52.156;5.382;2023-04-22T06:00:55;100496.69;;;8.71;100.00
26043;BME280;13818;52.156;5.382;2023-04-22T06:03:22;100490.38;;;8.73;100.00
26043;BME280;13818;52.156;5.382;2023-04-22T06:05:49;100508.25;;;8.90;100.00
26043;BME280;13818;52.156;5.382;2023-04-22T06:08:15;100497.72;;;8.87;100.00
26043;BME280;13818;52.156;5.382;2023-04-22T06:10:42;100503.94;;;8.88;100.00
26043;BME280;13818;52.156;5.382;2023-04-22T06:13:08;100505.16;;;9.00;100.00
26043;BME280;13818;52.156;5.382;2023-04-22T06:15:36;100497.75;;;9.06;100.00
26043;BME280;13818;52.156;5.382;2023-04-22T06:18:03;100492.31;;;9.09;100.00
26043;BME280;13818;52.156;5.382;2023-04-22T06:20:30;100490.59;;;9.08;100.00
26043;BME280;13818;52.156;5.382;2023-04-22T06:22:57;100487.19;;;9.44;100.00
26043;BME280;13818;52.156;5.382;2023-04-22T06:25:23;100481.97;;;9.60;100.00
26043;BME280;13818;52.156;5.382;2023-04-22T06:27:50;100477.53;;;9.61;100.00
26043;BME280;13818;52.156;5.382;2023-04-22T06:30:16;100481.13;;;9.60;100.00
26043;BME280;13818;52.156;5.382;2023-04-22T06:32:44;100474.22;;;9.56;100.00
26043;BME280;13818;52.156;5.382;2023-04-22T06:35:11;100469.13;;;9.51;100.00
26043;BME280;13818;52.156;5.382;2023-04-22T06:37:37;100470.91;;;9.70;100.00
26043;BME280;13818;52.156;5.382;2023-04-22T06:40:05;100467.09;;;9.93;100.00
26043;BME280;13818;52.156;5.382;2023-04-22T06:42:32;100469.25;;;10.04;100.00
26043;BME280;13818;52.156;5.382;2023-04-22T06:44:58;100457.31;;;10.11;100.00
26043;BME280;13818;52.156;5.382;2023-04-22T06:47:25;100450.63;;;10.21;100.00
26043;BME280;13818;52.156;5.382;2023-04-22T06:49:53;100447.50;;;10.48;100.00
26043;BME280;13818;52.156;5.382;2023-04-22T06:52:19;100451.72;;;10.52;100.00
26043;BME280;13818;52.156;5.382;2023-04-22T06:54:46;100449.63;;;10.41;100.00
26043;BME280;13818;52.156;5.382;2023-04-22T06:57:12;100445.22;;;10.40;100.00
26043;BME280;13818;52.156;5.382;2023-04-22T06:59:39;100440.81;;;10.57;100.00
26043;BME280;13818;52.156;5.382;2023-04-22T07:02:06;100442.13;;;10.66;100.00
26043;BME280;13818;52.156;5.382;2023-04-22T07:04:32;100437.84;;;10.63;100.00
26043;BME280;13818;52.156;5.382;2023-04-22T07:07:00;100434.84;;;10.69;100.00
26043;BME280;13818;52.156;5.382;2023-04-22T07:09:27;100435.88;;;10.67;100.00
26043;BME280;13818;52.156;5.382;2023-04-22T07:11:54;100429.47;;;10.87;100.00
26043;BME280;13818;52.156;5.382;2023-04-22T07:14:24;100431.91;;;11.07;100.00
26043;BME280;13818;52.156;5.382;2023-04-22T07:16:50;100434.06;;;11.01;100.00
26043;BME280;13818;52.156;5.382;2023-04-22T07:19:17;100435.78;;;11.18;100.00
26043;BME280;13818;52.156;5.382;2023-04-22T07:21:44;100443.03;;;11.64;100.00
26043;BME280;13818;52.156;5.382;2023-04-22T07:24:11;100439.84;;;12.19;100.00
26043;BME280;13818;52.156;5.382;2023-04-22T07:26:39;100436.84;;;12.40;100.00
26043;BME280;13818;52.156;5.382;2023-04-22T07:29:06;100434.78;;;12.89;100.00
26043;BME280;13818;52.156;5.382;2023-04-22T07:31:34;100428.28;;;12.49;100.00
26043;BME280;13818;52.156;5.382;2023-04-22T07:34:01;100433.25;;;12.70;100.00
26043;BME280;13818;52.156;5.382;2023-04-22T07:36:27;100436.13;;;12.81;100.00
26043;BME280;13818;52.156;5.382;2023-04-22T07:38:54;100425.13;;;13.00;100.00
26043;BME280;13818;52.156;5.382;2023-04-22T07:41:22;100422.78;;;14.20;100.00
26043;BME280;13818;52.156;5.382;2023-04-22T07:43:48;100420.53;;;15.04;100.00
26043;BME280;13818;52.156;5.382;2023-04-22T07:46:15;100432.06;;;16.85;100.00
26043;BME280;13818;52.156;5.382;2023-04-22T07:48:41;100431.84;;;16.19;100.00
26043;BME280;13818;52.156;5.382;2023-04-22T07:51:09;100437.72;;;16.82;100.00
26043;BME280;13818;52.156;5.382;2023-04-22T07:53:35;100439.59;;;16.35;100.00
26043;BME280;13818;52.156;5.382;2023-04-22T07:56:03;100426.69;;;16.63;100.00
26043;BME280;13818;52.156;5.382;2023-04-22T07:58:31;100443.63;;;16.99;100.00
26043;BME280;13818;52.156;5.382;2023-04-22T08:00:57;100443.09;;;16.82;100.00
26043;BME280;13818;52.156;5.382;2023-04-22T08:03:24;100439.41;;;16.61;100.00
26043;BME280;13818;52.156;5.382;2023-04-22T08:05:50;100452.81;;;16.38;100.00
26043;BME280;13818;52.156;5.382;2023-04-22T08:08:17;100463.19;;;16.42;100.00
26043;BME280;13818;52.156;5.382;2023-04-22T08:10:43;100458.63;;;16.20;100.00
26043;BME280;13818;52.156;5.382;2023-04-22T08:13:10;100449.78;;;15.83;100.00
26043;BME280;13818;52.156;5.382;2023-04-22T08:15:38;100444.94;;;16.23;100.00
26043;BME280;13818;52.156;5.382;2023-04-22T08:18:04;100438.47;;;16.26;100.00
26043;BME280;13818;52.156;5.382;2023-04-22T08:20:31;100430.19;;;16.40;100.00
26043;BME280;13818;52.156;5.382;2023-04-22T08:22:57;100412.88;;;16.67;100.00
26043;BME280;13818;52.156;5.382;2023-04-22T08:25:24;100405.19;;;16.97;100.00
26043;BME280;13818;52.156;5.382;2023-04-22T08:27:51;100403.56;;;17.39;100.00
26043;BME280;13818;52.156;5.382;2023-04-22T08:30:17;100406.44;;;16.92;100.00
26043;BME280;13818;52.156;5.382;2023-04-22T08:32:45;100394.03;;;16.67;100.00
26043;BME280;13818;52.156;5.382;2023-04-22T08:35:12;100383.06;;;16.93;100.00
26043;BME280;13818;52.156;5.382;2023-04-22T08:37:39;100377.56;;;17.50;100.00
26043;BME280;13818;52.156;5.382;2023-04-22T08:40:07;100385.63;;;17.50;100.00
26043;BME280;13818;52.156;5.382;2023-04-22T08:42:33;100387.22;;;17.08;100.00
26043;BME280;13818;52.156;5.382;2023-04-22T08:45:01;100385.25;;;17.11;100.00
26043;BME280;13818;52.156;5.382;2023-04-22T08:47:29;100383.75;;;17.29;100.00
26043;BME280;13818;52.156;5.382;2023-04-22T08:50:00;100389.16;;;17.18;100.00
26043;BME280;13818;52.156;5.382;2023-04-22T08:52:28;100382.00;;;17.39;100.00
26043;BME280;13818;52.156;5.382;2023-04-22T08:54:55;100384.50;;;17.31;100.00
26043;BME280;13818;52.156;5.382;2023-04-22T08:57:22;100376.31;;;17.65;100.00
26043;BME280;13818;52.156;5.382;2023-04-22T08:59:50;100383.41;;;17.66;100.00
26043;BME280;13818;52.156;5.382;2023-04-22T09:02:19;100375.38;;;17.76;100.00
26043;BME280;13818;52.156;5.382;2023-04-22T09:04:48;100381.13;;;17.94;100.00
26043;BME280;13818;52.156;5.382;2023-04-22T09:07:21;100371.59;;;18.32;100.00
26043;BME280;13818;52.156;5.382;2023-04-22T09:09:48;100372.78;;;18.18;100.00
26043;BME280;13818;52.156;5.382;2023-04-22T09:12:15;100367.25;;;17.87;100.00
26043;BME280;13818;52.156;5.382;2023-04-22T09:14:44;100369.53;;;18.03;100.00
26043;BME280;13818;52.156;5.382;2023-04-22T09:17:14;100360.28;;;17.85;100.00
26043;BME280;13818;52.156;5.382;2023-04-22T09:19:41;100357.97;;;18.13;100.00
26043;BME280;13818;52.156;5.382;2023-04-22T09:22:09;100364.94;;;18.15;100.00
26043;BME280;13818;52.156;5.382;2023-04-22T09:24:43;100356.19;;;18.23;100.00
26043;BME280;13818;52.156;5.382;2023-04-22T09:27:15;100348.88;;;18.14;100.00
26043;BME280;13818;52.156;5.382;2023-04-22T09:29:46;100349.28;;;18.61;100.00
26043;BME280;13818;52.156;5.382;2023-04-22T09:32:13;100348.22;;;18.43;100.00
26043;BME280;13818;52.156;5.382;2023-04-22T09:34:48;100343.22;;;18.69;100.00
26043;BME280;13818;52.156;5.382;2023-04-22T09:37:18;100330.91;;;18.24;100.00
26043;BME280;13818;52.156;5.382;2023-04-22T09:39:50;100338.13;;;19.07;100.00
26043;BME280;13818;52.156;5.382;2023-04-22T09:42:17;100334.09;;;19.01;100.00
26043;BME280;13818;52.156;5.382;2023-04-22T09:44:45;100325.22;;;19.40;100.00
26043;BME280;13818;52.156;5.382;2023-04-22T09:47:12;100316.81;;;19.23;100.00
26043;BME280;13818;52.156;5.382;2023-04-22T09:49:39;100317.53;;;19.15;100.00
26043;BME280;13818;52.156;5.382;2023-04-22T09:52:19;100314.00;;;18.84;100.00
26043;BME280;13818;52.156;5.382;2023-04-22T09:54:50;100313.78;;;18.56;100.00
26043;BME280;13818;52.156;5.382;2023-04-22T09:57:18;100310.00;;;18.68;100.00
26043;BME280;13818;52.156;5.382;2023-04-22T09:59:45;100307.00;;;19.22;100.00
26043;BME280;13818;52.156;5.382;2023-04-22T10:02:12;100306.59;;;19.27;100.00
26043;BME280;13818;52.156;5.382;2023-04-22T10:04:40;100309.22;;;18.57;100.00
26043;BME280;13818;52.156;5.382;2023-04-22T10:07:08;100316.28;;;18.17;100.00
26043;BME280;13818;52.156;5.382;2023-04-22T10:09:34;100308.88;;;17.77;100.00
26043;BME280;13818;52.156;5.382;2023-04-22T10:12:03;100304.59;;;17.74;100.00
26043;BME280;13818;52.156;5.382;2023-04-22T10:14:30;100310.94;;;17.52;100.00
26043;BME280;13818;52.156;5.382;2023-04-22T10:16:58;100298.56;;;17.82;100.00
26043;BME280;13818;52.156;5.382;2023-04-22T10:19:27;100298.59;;;18.03;100.00
26043;BME280;13818;52.156;5.382;2023-04-22T10:21:56;100299.56;;;18.02;100.00
26043;BME280;13818;52.156;5.382;2023-04-22T10:24:25;100293.50;;;18.31;100.00
26043;BME280;13818;52.156;5.382;2023-04-22T10:26:54;100296.50;;;18.37;100.00
26043;BME280;13818;52.156;5.382;2023-04-22T10:29:23;100292.47;;;18.63;100.00
26043;BME280;13818;52.156;5.382;2023-04-22T10:31:53;100303.03;;;18.76;100.00
26043;BME280;13818;52.156;5.382;2023-04-22T10:34:21;100308.25;;;18.98;100.00
26043;BME280;13818;52.156;5.382;2023-04-22T10:36:57;100312.94;;;19.06;100.00
26043;BME280;13818;52.156;5.382;2023-04-22T10:39:24;100308.88;;;18.81;100.00
26043;BME280;13818;52.156;5.382;2023-04-22T10:42:04;100309.84;;;18.70;100.00
26043;BME280;13818;52.156;5.382;2023-04-22T10:44:52;100310.44;;;18.83;100.00
26043;BME280;13818;52.156;5.382;2023-04-22T10:47:27;100310.78;;;18.90;100.00
26043;BME280;13818;52.156;5.382;2023-04-22T10:50:15;100306.00;;;19.23;100.00
26043;BME280;13818;52.156;5.382;2023-04-22T10:52:48;100311.28;;;19.25;100.00
26043;BME280;13818;52.156;5.382;2023-04-22T10:55:15;100311.38;;;19.03;100.00
26043;BME280;13818;52.156;5.382;2023-04-22T10:57:43;100322.38;;;18.81;100.00
26043;BME280;13818;52.156;5.382;2023-04-22T11:00:22;100310.75;;;18.49;100.00
26043;BME280;13818;52.156;5.382;2023-04-22T11:02:51;100307.56;;;18.34;100.00
26043;BME280;13818;52.156;5.382;2023-04-22T11:05:20;100312.16;;;18.44;100.00
26043;BME280;13818;52.156;5.382;2023-04-22T11:07:48;100321.00;;;18.25;100.00
26043;BME280;13818;52.156;5.382;2023-04-22T11:10:35;100325.66;;;18.23;100.00
26043;BME280;13818;52.156;5.382;2023-04-22T11:13:06;100322.75;;;18.35;100.00
26043;BME280;13818;52.156;5.382;2023-04-22T11:15:36;100326.16;;;18.37;100.00
26043;BME280;13818;52.156;5.382;2023-04-22T11:18:07;100318.63;;;18.62;100.00
26043;BME280;13818;52.156;5.382;2023-04-22T11:20:35;100320.09;;;18.76;100.00
26043;BME280;13818;52.156;5.382;2023-04-22T11:23:01;100317.66;;;18.73;100.00
26043;BME280;13818;52.156;5.382;2023-04-22T11:25:28;100320.25;;;18.84;100.00
26043;BME280;13818;52.156;5.382;2023-04-22T11:27:55;100313.59;;;18.89;100.00
26043;BME280;13818;52.156;5.382;2023-04-22T11:30:24;100302.97;;;18.97;100.00
26043;BME280;13818;52.156;5.382;2023-04-22T11:32:53;100311.00;;;19.18;100.00
26043;BME280;13818;52.156;5.382;2023-04-22T11:35:21;100317.41;;;19.37;100.00
26043;BME280;13818;52.156;5.382;2023-04-22T11:37:49;100323.97;;;19.34;100.00
26043;BME280;13818;52.156;5.382;2023-04-22T11:40:17;100312.69;;;19.19;100.00
26043;BME280;13818;52.156;5.382;2023-04-22T11:42:46;100322.31;;;19.02;100.00
26043;BME280;13818;52.156;5.382;2023-04-22T11:45:14;100323.59;;;18.98;100.00
26043;BME280;13818;52.156;5.382;2023-04-22T11:47:40;100318.53;;;18.74;100.00
26043;BME280;13818;52.156;5.382;2023-04-22T11:50:09;100327.78;;;18.50;100.00
26043;BME280;13818;52.156;5.382;2023-04-22T11:52:44;100327.28;;;18.35;100.00
26043;BME280;13818;52.156;5.382;2023-04-22T11:55:11;100342.84;;;18.00;100.00
26043;BME280;13818;52.156;5.382;2023-04-22T11:57:38;100355.75;;;17.85;100.00
26043;BME280;13818;52.156;5.382;2023-04-22T12:00:06;100348.03;;;17.60;100.00
26043;BME280;13818;52.156;5.382;2023-04-22T12:02:34;100322.75;;;17.39;100.00
26043;BME280;13818;52.156;5.382;2023-04-22T12:05:01;100342.84;;;17.35;100.00
26043;BME280;13818;52.156;5.382;2023-04-22T12:07:30;100351.81;;;17.13;100.00
26043;BME280;13818;52.156;5.382;2023-04-22T12:09:57;100345.13;;;17.07;100.00
26043;BME280;13818;52.156;5.382;2023-04-22T12:12:25;100347.47;;;17.01;100.00
26043;BME280;13818;52.156;5.382;2023-04-22T12:14:52;100340.84;;;16.82;100.00
26043;BME280;13818;52.156;5.382;2023-04-22T12:17:22;100347.69;;;16.75;100.00
26043;BME280;13818;52.156;5.382;2023-04-22T12:19:52;100342.66;;;16.70;100.00
26043;BME280;13818;52.156;5.382;2023-04-22T12:22:23;100343.03;;;16.66;100.00
26043;BME280;13818;52.156;5.382;2023-04-22T12:24:52;100352.09;;;16.65;100.00
26043;BME280;13818;52.156;5.382;2023-04-22T12:27:18;100354.16;;;16.50;100.00
26043;BME280;13818;52.156;5.382;2023-04-22T12:29:50;100347.94;;;16.61;100.00
26043;BME280;13818;52.156;5.382;2023-04-22T12:32:18;100351.81;;;16.45;100.00
26043;BME280;13818;52.156;5.382;2023-04-22T12:34:44;100357.81;;;16.49;100.00
26043;BME280;13818;52.156;5.382;2023-04-22T12:37:11;100357.59;;;16.63;100.00
26043;BME280;13818;52.156;5.382;2023-04-22T12:39:37;100351.97;;;16.66;100.00
26043;BME280;13818;52.156;5.382;2023-04-22T12:42:05;100358.09;;;16.57;100.00
26043;BME280;13818;52.156;5.382;2023-04-22T12:44:32;100364.44;;;16.56;100.00
26043;BME280;13818;52.156;5.382;2023-04-22T12:47:00;100349.03;;;16.35;100.00